sensor_id;sensor_type;location;lat;lon;timestamp;P1;durP1;ratioP1;P2;durP2;ratioP2
51465;SDS011;37542;50.164;9.086;2022-10-31T00:02:00;6.53;;;3.75;;
51465;SDS011;37542;50.164;9.086;2022-10-31T00:05:42;6.35;;;4.03;;
51465;SDS011;37542;50.164;9.086;2022-10-31T00:09:25;6.57;;;4.20;;
51465;SDS011;37542;50.164;9.086;2022-10-31T00:13:06;8.63;;;4.05;;
51465;SDS011;37542;50.164;9.086;2022-10-31T00:16:48;5.45;;;3.75;;
51465;SDS011;37542;50.164;9.086;2022-10-31T00:20:29;5.70;;;3.75;;
51465;SDS011;37542;50.164;9.086;2022-10-31T00:24:11;11.80;;;4.30;;
51465;SDS011;37542;50.164;9.086;2022-10-31T00:27:51;6.22;;;3.50;;
51465;SDS011;37542;50.164;9.086;2022-10-31T00:31:32;8.57;;;3.97;;
51465;SDS011;37542;50.164;9.086;2022-10-31T00:35:13;7.57;;;4.00;;
51465;SDS011;37542;50.164;9.086;2022-10-31T00:38:54;6.50;;;3.60;;
51465;SDS011;37542;50.164;9.086;2022-10-31T00:42:35;4.68;;;3.30;;
51465;SDS011;37542;50.164;9.086;2022-10-31T00:46:16;5.75;;;3.83;;
51465;SDS011;37542;50.164;9.086;2022-10-31T00:49:57;4.68;;;3.10;;
51465;SDS011;37542;50.164;9.086;2022-10-31T00:53:37;6.25;;;3.80;;
51465;SDS011;37542;50.164;9.086;2022-10-31T00:57:18;9.35;;;3.72;;
51465;SDS011;37542;50.164;9.086;2022-10-31T01:00:59;8.30;;;3.67;;
51465;SDS011;37542;50.164;9.086;2022-10-31T01:04:39;6.85;;;3.88;;
51465;SDS011;37542;50.164;9.086;2022-10-31T01:08:20;7.70;;;3.58;;
51465;SDS011;37542;50.164;9.086;2022-10-31T01:12:01;6.32;;;3.45;;
51465;SDS011;37542;50.164;9.086;2022-10-31T01:15:42;9.13;;;3.70;;
51465;SDS011;37542;50.164;9.086;2022-10-31T01:19:22;6.65;;;3.60;;
51465;SDS011;37542;50.164;9.086;2022-10-31T01:23:03;5.40;;;3.38;;
51465;SDS011;37542;50.164;9.086;2022-10-31T01:26:44;8.48;;;4.18;;
51465;SDS011;37542;50.164;9.086;2022-10-31T01:30:24;6.65;;;3.63;;
51465;SDS011;37542;50.164;9.086;2022-10-31T01:34:05;6.00;;;3.53;;
51465;SDS011;37542;50.164;9.086;2022-10-31T01:37:47;6.57;;;3.47;;
51465;SDS011;37542;50.164;9.086;2022-10-31T01:41:28;4.75;;;3.15;;
51465;SDS011;37542;50.164;9.086;2022-10-31T01:45:11;6.40;;;3.30;;
51465;SDS011;37542;50.164;9.086;2022-10-31T01:48:55;7.18;;;3.28;;
51465;SDS011;37542;50.164;9.086;2022-10-31T01:52:41;5.40;;;3.50;;
51465;SDS011;37542;50.164;9.086;2022-10-31T01:56:27;10.98;;;3.40;;
51465;SDS011;37542;50.164;9.086;2022-10-31T02:00:08;7.60;;;3.38;;
51465;SDS011;37542;50.164;9.086;2022-10-31T02:03:51;6.07;;;3.45;;
51465;SDS011;37542;50.164;9.086;2022-10-31T02:07:39;9.05;;;3.60;;
51465;SDS011;37542;50.164;9.086;2022-10-31T02:11:31;6.15;;;3.70;;
51465;SDS011;37542;50.164;9.086;2022-10-31T02:15:15;6.20;;;3.50;;
51465;SDS011;37542;50.164;9.086;2022-10-31T02:18:56;7.53;;;3.28;;
51465;SDS011;37542;50.164;9.086;2022-10-31T02:35:13;6.00;;;3.50;;
51465;SDS011;37542;50.164;9.086;2022-10-31T02:39:26;5.65;;;2.55;;
51465;SDS011;37542;50.164;9.086;2022-10-31T02:43:17;7.38;;;3.03;;
51465;SDS011;37542;50.164;9.086;2022-10-31T02:47:18;5.70;;;3.10;;
51465;SDS011;37542;50.164;9.086;2022-10-31T02:51:13;4.28;;;3.20;;
51465;SDS011;37542;50.164;9.086;2022-10-31T02:54:56;5.82;;;2.72;;
51465;SDS011;37542;50.164;9.086;2022-10-31T02:58:45;6.88;;;3.90;;
51465;SDS011;37542;50.164;9.086;2022-10-31T03:02:45;7.43;;;3.53;;
51465;SDS011;37542;50.164;9.086;2022-10-31T03:10:59;4.47;;;3.15;;
51465;SDS011;37542;50.164;9.086;2022-10-31T03:14:44;5.88;;;3.47;;
51465;SDS011;37542;50.164;9.086;2022-10-31T03:22:37;4.35;;;3.22;;
51465;SDS011;37542;50.164;9.086;2022-10-31T03:26:22;6.60;;;3.17;;
51465;SDS011;37542;50.164;9.086;2022-10-31T03:30:05;6.82;;;3.47;;
51465;SDS011;37542;50.164;9.086;2022-10-31T03:33:47;5.90;;;3.33;;
51465;SDS011;37542;50.164;9.086;2022-10-31T03:37:32;5.10;;;3.28;;
51465;SDS011;37542;50.164;9.086;2022-10-31T03:41:16;6.13;;;3.80;;
51465;SDS011;37542;50.164;9.086;2022-10-31T03:45:08;6.50;;;3.53;;
51465;SDS011;37542;50.164;9.086;2022-10-31T03:49:00;4.55;;;3.10;;
51465;SDS011;37542;50.164;9.086;2022-10-31T03:52:46;5.55;;;3.25;;
51465;SDS011;37542;50.164;9.086;2022-10-31T03:56:49;6.57;;;3.60;;
51465;SDS011;37542;50.164;9.086;2022-10-31T04:00:56;7.65;;;3.35;;
51465;SDS011;37542;50.164;9.086;2022-10-31T04:04:42;4.60;;;3.28;;
51465;SDS011;37542;50.164;9.086;2022-10-31T04:08:26;4.72;;;3.30;;
51465;SDS011;37542;50.164;9.086;2022-10-31T04:12:11;8.55;;;3.50;;
51465;SDS011;37542;50.164;9.086;2022-10-31T04:15:56;5.32;;;3.10;;
51465;SDS011;37542;50.164;9.086;2022-10-31T04:19:37;6.57;;;3.50;;
51465;SDS011;37542;50.164;9.086;2022-10-31T04:23:19;6.88;;;3.88;;
51465;SDS011;37542;50.164;9.086;2022-10-31T04:27:05;5.32;;;3.58;;
51465;SDS011;37542;50.164;9.086;2022-10-31T04:30:46;6.25;;;3.65;;
51465;SDS011;37542;50.164;9.086;2022-10-31T04:34:27;11.35;;;6.03;;
51465;SDS011;37542;50.164;9.086;2022-10-31T04:38:08;7.45;;;5.03;;
51465;SDS011;37542;50.164;9.086;2022-10-31T04:41:49;9.18;;;4.40;;
51465;SDS011;37542;50.164;9.086;2022-10-31T04:45:29;7.10;;;4.50;;
51465;SDS011;37542;50.164;9.086;2022-10-31T04:49:10;6.10;;;4.72;;
51465;SDS011;37542;50.164;9.086;2022-10-31T04:52:51;6.90;;;4.65;;
51465;SDS011;37542;50.164;9.086;2022-10-31T04:56:32;7.97;;;4.72;;
51465;SDS011;37542;50.164;9.086;2022-10-31T05:00:13;7.03;;;4.97;;
51465;SDS011;37542;50.164;9.086;2022-10-31T05:03:57;8.30;;;5.10;;
51465;SDS011;37542;50.164;9.086;2022-10-31T05:07:39;8.32;;;4.75;;
51465;SDS011;37542;50.164;9.086;2022-10-31T05:11:21;7.90;;;4.75;;
51465;SDS011;37542;50.164;9.086;2022-10-31T05:15:02;6.70;;;4.78;;
51465;SDS011;37542;50.164;9.086;2022-10-31T05:18:44;7.20;;;4.30;;
51465;SDS011;37542;50.164;9.086;2022-10-31T05:22:25;6.32;;;3.83;;
51465;SDS011;37542;50.164;9.086;2022-10-31T05:26:06;8.70;;;3.78;;
51465;SDS011;37542;50.164;9.086;2022-10-31T05:29:47;7.78;;;4.47;;
51465;SDS011;37542;50.164;9.086;2022-10-31T05:33:28;5.00;;;3.88;;
51465;SDS011;37542;50.164;9.086;2022-10-31T05:37:08;5.45;;;3.78;;
51465;SDS011;37542;50.164;9.086;2022-10-31T05:40:50;7.05;;;4.00;;
51465;SDS011;37542;50.164;9.086;2022-10-31T05:44:38;6.57;;;3.45;;
51465;SDS011;37542;50.164;9.086;2022-10-31T05:48:18;9.27;;;4.38;;
51465;SDS011;37542;50.164;9.086;2022-10-31T05:51:59;6.35;;;4.18;;
51465;SDS011;37542;50.164;9.086;2022-10-31T05:55:40;6.20;;;3.67;;
51465;SDS011;37542;50.164;9.086;2022-10-31T05:59:22;8.35;;;4.15;;
51465;SDS011;37542;50.164;9.086;2022-10-31T06:03:04;9.02;;;4.53;;
51465;SDS011;37542;50.164;9.086;2022-10-31T06:06:47;7.05;;;4.65;;
51465;SDS011;37542;50.164;9.086;2022-10-31T06:10:28;6.10;;;4.00;;
51465;SDS011;37542;50.164;9.086;2022-10-31T06:14:09;8.50;;;4.18;;
51465;SDS011;37542;50.164;9.086;2022-10-31T06:17:57;7.82;;;4.93;;
51465;SDS011;37542;50.164;9.086;2022-10-31T06:21:42;5.75;;;3.95;;
51465;SDS011;37542;50.164;9.086;2022-10-31T06:25:23;5.65;;;2.85;;
51465;SDS011;37542;50.164;9.086;2022-10-31T06:29:04;13.43;;;3.95;;
51465;SDS011;37542;50.164;9.086;2022-10-31T06:32:45;4.22;;;2.92;;
51465;SDS011;37542;50.164;9.086;2022-10-31T06:36:26;6.22;;;3.20;;
51465;SDS011;37542;50.164;9.086;2022-10-31T06:40:07;8.45;;;3.78;;
51465;SDS011;37542;50.164;9.086;2022-10-31T06:43:48;7.65;;;3.55;;
51465;SDS011;37542;50.164;9.086;2022-10-31T06:47:29;8.00;;;3.60;;
51465;SDS011;37542;50.164;9.086;2022-10-31T06:51:10;6.13;;;3.38;;
51465;SDS011;37542;50.164;9.086;2022-10-31T06:54:50;5.32;;;3.60;;
51465;SDS011;37542;50.164;9.086;2022-10-31T06:58:31;4.82;;;3.35;;
51465;SDS011;37542;50.164;9.086;2022-10-31T07:02:12;6.50;;;4.85;;
51465;SDS011;37542;50.164;9.086;2022-10-31T07:05:54;8.35;;;4.03;;
51465;SDS011;37542;50.164;9.086;2022-10-31T07:09:36;6.32;;;3.83;;
51465;SDS011;37542;50.164;9.086;2022-10-31T07:13:17;7.78;;;4.00;;
51465;SDS011;37542;50.164;9.086;2022-10-31T07:16:58;8.95;;;4.18;;
51465;SDS011;37542;50.164;9.086;2022-10-31T07:20:38;7.40;;;4.10;;
51465;SDS011;37542;50.164;9.086;2022-10-31T07:24:19;7.50;;;4.30;;
51465;SDS011;37542;50.164;9.086;2022-10-31T07:28:00;9.07;;;3.50;;
51465;SDS011;37542;50.164;9.086;2022-10-31T07:31:41;5.63;;;4.00;;
51465;SDS011;37542;50.164;9.086;2022-10-31T07:35:24;9.85;;;4.18;;
51465;SDS011;37542;50.164;9.086;2022-10-31T07:39:08;6.72;;;3.45;;
51465;SDS011;37542;50.164;9.086;2022-10-31T07:42:49;6.75;;;3.58;;
51465;SDS011;37542;50.164;9.086;2022-10-31T07:46:32;6.72;;;3.85;;
51465;SDS011;37542;50.164;9.086;2022-10-31T07:50:17;9.57;;;4.38;;
51465;SDS011;37542;50.164;9.086;2022-10-31T07:54:06;5.72;;;3.70;;
51465;SDS011;37542;50.164;9.086;2022-10-31T07:57:54;5.18;;;3.72;;
51465;SDS011;37542;50.164;9.086;2022-10-31T08:01:40;5.93;;;3.60;;
51465;SDS011;37542;50.164;9.086;2022-10-31T08:05:21;6.82;;;3.72;;
51465;SDS011;37542;50.164;9.086;2022-10-31T08:09:02;7.18;;;4.18;;
51465;SDS011;37542;50.164;9.086;2022-10-31T08:12:42;5.22;;;3.38;;
51465;SDS011;37542;50.164;9.086;2022-10-31T08:16:23;7.05;;;4.40;;
51465;SDS011;37542;50.164;9.086;2022-10-31T08:20:04;6.38;;;3.70;;
51465;SDS011;37542;50.164;9.086;2022-10-31T08:23:46;6.90;;;3.58;;
51465;SDS011;37542;50.164;9.086;2022-10-31T08:27:27;5.15;;;3.90;;
51465;SDS011;37542;50.164;9.086;2022-10-31T08:31:07;8.77;;;4.10;;
51465;SDS011;37542;50.164;9.086;2022-10-31T08:34:50;7.32;;;4.13;;
51465;SDS011;37542;50.164;9.086;2022-10-31T08:38:30;8.52;;;4.43;;
51465;SDS011;37542;50.164;9.086;2022-10-31T08:42:11;7.25;;;4.30;;
51465;SDS011;37542;50.164;9.086;2022-10-31T08:45:52;7.05;;;4.07;;
51465;SDS011;37542;50.164;9.086;2022-10-31T08:49:34;4.72;;;3.63;;
51465;SDS011;37542;50.164;9.086;2022-10-31T08:53:16;6.18;;;4.43;;
51465;SDS011;37542;50.164;9.086;2022-10-31T08:56:58;7.00;;;4.10;;
51465;SDS011;37542;50.164;9.086;2022-10-31T09:00:39;6.15;;;3.55;;
51465;SDS011;37542;50.164;9.086;2022-10-31T09:04:21;10.30;;;4.10;;
51465;SDS011;37542;50.164;9.086;2022-10-31T09:08:02;7.38;;;4.18;;
51465;SDS011;37542;50.164;9.086;2022-10-31T09:11:45;7.32;;;4.13;;
51465;SDS011;37542;50.164;9.086;2022-10-31T09:15:26;8.35;;;4.22;;
51465;SDS011;37542;50.164;9.086;2022-10-31T09:19:08;9.82;;;4.38;;
51465;SDS011;37542;50.164;9.086;2022-10-31T09:22:55;7.13;;;4.45;;
51465;SDS011;37542;50.164;9.086;2022-10-31T09:26:38;8.75;;;3.83;;
51465;SDS011;37542;50.164;9.086;2022-10-31T09:30:18;5.75;;;3.92;;
51465;SDS011;37542;50.164;9.086;2022-10-31T09:33:59;5.20;;;3.70;;
51465;SDS011;37542;50.164;9.086;2022-10-31T09:37:40;12.10;;;4.55;;
51465;SDS011;37542;50.164;9.086;2022-10-31T09:41:24;6.57;;;3.90;;
51465;SDS011;37542;50.164;9.086;2022-10-31T09:54:10;7.78;;;4.72;;
51465;SDS011;37542;50.164;9.086;2022-10-31T09:58:00;9.32;;;4.32;;
51465;SDS011;37542;50.164;9.086;2022-10-31T10:05:38;5.93;;;3.45;;
51465;SDS011;37542;50.164;9.086;2022-10-31T10:09:51;5.95;;;3.80;;
51465;SDS011;37542;50.164;9.086;2022-10-31T10:13:36;5.93;;;4.18;;
51465;SDS011;37542;50.164;9.086;2022-10-31T10:17:40;6.28;;;4.28;;
51465;SDS011;37542;50.164;9.086;2022-10-31T10:26:22;9.27;;;3.90;;
51465;SDS011;37542;50.164;9.086;2022-10-31T10:30:48;6.40;;;3.92;;
51465;SDS011;37542;50.164;9.086;2022-10-31T10:35:04;6.80;;;3.72;;
51465;SDS011;37542;50.164;9.086;2022-10-31T10:39:14;4.78;;;3.28;;
51465;SDS011;37542;50.164;9.086;2022-10-31T10:43:19;7.70;;;3.83;;
51465;SDS011;37542;50.164;9.086;2022-10-31T10:47:10;8.65;;;4.15;;
51465;SDS011;37542;50.164;9.086;2022-10-31T10:51:17;5.75;;;3.58;;
51465;SDS011;37542;50.164;9.086;2022-10-31T10:55:35;7.32;;;3.70;;
51465;SDS011;37542;50.164;9.086;2022-10-31T10:59:28;5.22;;;3.25;;
51465;SDS011;37542;50.164;9.086;2022-10-31T11:03:10;8.38;;;3.72;;
51465;SDS011;37542;50.164;9.086;2022-10-31T11:06:58;5.65;;;3.00;;
51465;SDS011;37542;50.164;9.086;2022-10-31T11:15:17;6.35;;;3.60;;
51465;SDS011;37542;50.164;9.086;2022-10-31T11:23:00;5.78;;;3.13;;
51465;SDS011;37542;50.164;9.086;2022-10-31T11:27:05;5.50;;;3.60;;
51465;SDS011;37542;50.164;9.086;2022-10-31T11:30:57;4.88;;;3.08;;
51465;SDS011;37542;50.164;9.086;2022-10-31T11:34:43;6.65;;;3.45;;
51465;SDS011;37542;50.164;9.086;2022-10-31T11:38:35;4.75;;;3.35;;
51465;SDS011;37542;50.164;9.086;2022-10-31T11:42:23;5.88;;;3.53;;
51465;SDS011;37542;50.164;9.086;2022-10-31T11:46:15;7.03;;;3.50;;
51465;SDS011;37542;50.164;9.086;2022-10-31T11:50:22;5.68;;;3.45;;
51465;SDS011;37542;50.164;9.086;2022-10-31T11:54:15;6.60;;;3.45;;
51465;SDS011;37542;50.164;9.086;2022-10-31T11:58:27;6.63;;;3.40;;
51465;SDS011;37542;50.164;9.086;2022-10-31T12:02:14;6.20;;;3.55;;
51465;SDS011;37542;50.164;9.086;2022-10-31T12:06:07;7.38;;;3.33;;
51465;SDS011;37542;50.164;9.086;2022-10-31T12:10:10;11.63;;;4.28;;
51465;SDS011;37542;50.164;9.086;2022-10-31T12:14:02;5.63;;;3.53;;
51465;SDS011;37542;50.164;9.086;2022-10-31T12:22:25;7.38;;;3.83;;
51465;SDS011;37542;50.164;9.086;2022-10-31T12:26:38;8.15;;;3.63;;
51465;SDS011;37542;50.164;9.086;2022-10-31T12:30:39;5.95;;;3.53;;
51465;SDS011;37542;50.164;9.086;2022-10-31T12:39:58;6.32;;;3.70;;
51465;SDS011;37542;50.164;9.086;2022-10-31T12:43:43;5.40;;;3.38;;
51465;SDS011;37542;50.164;9.086;2022-10-31T12:47:48;9.95;;;4.53;;
51465;SDS011;37542;50.164;9.086;2022-10-31T12:52:10;6.20;;;3.58;;
51465;SDS011;37542;50.164;9.086;2022-10-31T12:56:17;5.68;;;3.75;;
51465;SDS011;37542;50.164;9.086;2022-10-31T13:00:28;8.30;;;4.13;;
51465;SDS011;37542;50.164;9.086;2022-10-31T13:04:19;9.02;;;4.05;;
51465;SDS011;37542;50.164;9.086;2022-10-31T13:08:18;9.30;;;4.70;;
51465;SDS011;37542;50.164;9.086;2022-10-31T13:12:11;6.43;;;3.67;;
51465;SDS011;37542;50.164;9.086;2022-10-31T13:16:07;8.48;;;4.07;;
51465;SDS011;37542;50.164;9.086;2022-10-31T13:20:05;6.82;;;3.80;;
51465;SDS011;37542;50.164;9.086;2022-10-31T13:23:54;5.18;;;3.45;;
51465;SDS011;37542;50.164;9.086;2022-10-31T13:31:29;8.30;;;4.25;;
51465;SDS011;37542;50.164;9.086;2022-10-31T13:35:33;6.32;;;4.55;;
51465;SDS011;37542;50.164;9.086;2022-10-31T13:44:12;8.55;;;4.00;;
51465;SDS011;37542;50.164;9.086;2022-10-31T13:56:04;5.38;;;3.30;;
51465;SDS011;37542;50.164;9.086;2022-10-31T14:07:47;5.50;;;3.88;;
51465;SDS011;37542;50.164;9.086;2022-10-31T14:11:29;5.32;;;2.67;;
51465;SDS011;37542;50.164;9.086;2022-10-31T14:15:23;5.65;;;3.95;;
51465;SDS011;37542;50.164;9.086;2022-10-31T14:19:08;5.43;;;3.53;;
51465;SDS011;37542;50.164;9.086;2022-10-31T14:22:56;7.50;;;4.22;;
51465;SDS011;37542;50.164;9.086;2022-10-31T14:26:37;8.27;;;3.90;;
51465;SDS011;37542;50.164;9.086;2022-10-31T14:30:19;9.02;;;4.25;;
51465;SDS011;37542;50.164;9.086;2022-10-31T14:38:20;13.07;;;5.57;;
51465;SDS011;37542;50.164;9.086;2022-10-31T14:54:33;12.23;;;5.63;;
51465;SDS011;37542;50.164;9.086;2022-10-31T14:58:22;7.50;;;3.90;;
51465;SDS011;37542;50.164;9.086;2022-10-31T15:02:18;8.25;;;4.18;;
51465;SDS011;37542;50.164;9.086;2022-10-31T15:06:12;7.88;;;3.60;;
51465;SDS011;37542;50.164;9.086;2022-10-31T15:09:57;5.95;;;3.83;;
51465;SDS011;37542;50.164;9.086;2022-10-31T15:13:49;8.48;;;4.47;;
51465;SDS011;37542;50.164;9.086;2022-10-31T15:17:31;5.55;;;3.90;;
51465;SDS011;37542;50.164;9.086;2022-10-31T15:21:14;7.35;;;4.22;;
51465;SDS011;37542;50.164;9.086;2022-10-31T15:24:57;7.50;;;4.20;;
51465;SDS011;37542;50.164;9.086;2022-10-31T15:28:38;6.88;;;4.32;;
51465;SDS011;37542;50.164;9.086;2022-10-31T15:32:20;6.57;;;3.70;;
51465;SDS011;37542;50.164;9.086;2022-10-31T15:36:16;6.50;;;3.22;;
51465;SDS011;37542;50.164;9.086;2022-10-31T15:40:14;9.57;;;3.80;;
51465;SDS011;37542;50.164;9.086;2022-10-31T15:44:04;8.20;;;3.77;;
51465;SDS011;37542;50.164;9.086;2022-10-31T15:52:02;7.13;;;3.65;;
51465;SDS011;37542;50.164;9.086;2022-10-31T15:56:20;9.10;;;4.10;;
51465;SDS011;37542;50.164;9.086;2022-10-31T16:00:05;5.70;;;3.80;;
51465;SDS011;37542;50.164;9.086;2022-10-31T16:07:52;7.57;;;4.05;;
51465;SDS011;37542;50.164;9.086;2022-10-31T16:11:36;12.40;;;5.03;;
51465;SDS011;37542;50.164;9.086;2022-10-31T16:15:19;6.50;;;4.25;;
51465;SDS011;37542;50.164;9.086;2022-10-31T16:19:02;11.95;;;4.80;;
51465;SDS011;37542;50.164;9.086;2022-10-31T16:22:48;11.23;;;4.50;;
51465;SDS011;37542;50.164;9.086;2022-10-31T16:26:31;7.60;;;4.30;;
51465;SDS011;37542;50.164;9.086;2022-10-31T16:34:26;8.23;;;3.63;;
51465;SDS011;37542;50.164;9.086;2022-10-31T16:38:07;7.05;;;3.95;;
51465;SDS011;37542;50.164;9.086;2022-10-31T16:41:54;7.93;;;4.18;;
51465;SDS011;37542;50.164;9.086;2022-10-31T16:45:36;9.65;;;5.13;;
51465;SDS011;37542;50.164;9.086;2022-10-31T16:49:17;7.53;;;4.50;;
51465;SDS011;37542;50.164;9.086;2022-10-31T16:52:58;11.77;;;4.97;;
51465;SDS011;37542;50.164;9.086;2022-10-31T16:56:39;13.07;;;7.47;;
51465;SDS011;37542;50.164;9.086;2022-10-31T17:00:22;15.07;;;7.20;;
51465;SDS011;37542;50.164;9.086;2022-10-31T17:04:05;10.52;;;6.13;;
51465;SDS011;37542;50.164;9.086;2022-10-31T17:07:49;12.30;;;7.30;;
51465;SDS011;37542;50.164;9.086;2022-10-31T17:11:30;13.70;;;7.65;;
51465;SDS011;37542;50.164;9.086;2022-10-31T17:15:18;10.65;;;5.80;;
51465;SDS011;37542;50.164;9.086;2022-10-31T17:19:04;9.35;;;5.32;;
51465;SDS011;37542;50.164;9.086;2022-10-31T17:22:45;7.50;;;3.60;;
51465;SDS011;37542;50.164;9.086;2022-10-31T17:26:26;7.63;;;4.53;;
51465;SDS011;37542;50.164;9.086;2022-10-31T17:30:07;7.30;;;4.57;;
51465;SDS011;37542;50.164;9.086;2022-10-31T17:33:52;12.10;;;6.03;;
51465;SDS011;37542;50.164;9.086;2022-10-31T17:37:35;8.85;;;5.18;;
51465;SDS011;37542;50.164;9.086;2022-10-31T17:41:16;7.30;;;4.90;;
51465;SDS011;37542;50.164;9.086;2022-10-31T17:44:57;6.53;;;4.75;;
51465;SDS011;37542;50.164;9.086;2022-10-31T17:48:38;10.93;;;4.35;;
51465;SDS011;37542;50.164;9.086;2022-10-31T17:52:19;9.32;;;4.13;;
51465;SDS011;37542;50.164;9.086;2022-10-31T17:56:01;9.07;;;4.32;;
51465;SDS011;37542;50.164;9.086;2022-10-31T17:59:47;7.15;;;4.63;;
51465;SDS011;37542;50.164;9.086;2022-10-31T18:03:31;7.53;;;4.45;;
51465;SDS011;37542;50.164;9.086;2022-10-31T18:07:15;6.10;;;3.95;;
51465;SDS011;37542;50.164;9.086;2022-10-31T18:10:58;6.25;;;4.30;;
51465;SDS011;37542;50.164;9.086;2022-10-31T18:14:44;7.88;;;4.47;;
51465;SDS011;37542;50.164;9.086;2022-10-31T18:18:25;7.78;;;3.80;;
51465;SDS011;37542;50.164;9.086;2022-10-31T18:22:06;11.63;;;4.63;;
51465;SDS011;37542;50.164;9.086;2022-10-31T18:25:46;11.98;;;5.53;;
51465;SDS011;37542;50.164;9.086;2022-10-31T18:29:27;9.23;;;6.63;;
51465;SDS011;37542;50.164;9.086;2022-10-31T18:33:10;9.77;;;6.85;;
51465;SDS011;37542;50.164;9.086;2022-10-31T18:36:51;13.48;;;7.18;;
51465;SDS011;37542;50.164;9.086;2022-10-31T18:40:33;11.35;;;6.70;;
51465;SDS011;37542;50.164;9.086;2022-10-31T18:44:17;11.77;;;6.72;;
51465;SDS011;37542;50.164;9.086;2022-10-31T18:47:59;8.15;;;4.97;;
51465;SDS011;37542;50.164;9.086;2022-10-31T18:51:39;11.98;;;4.78;;
51465;SDS011;37542;50.164;9.086;2022-10-31T18:55:20;9.93;;;5.25;;
51465;SDS011;37542;50.164;9.086;2022-10-31T18:59:01;6.75;;;4.50;;
51465;SDS011;37542;50.164;9.086;2022-10-31T19:02:42;7.88;;;4.93;;
51465;SDS011;37542;50.164;9.086;2022-10-31T19:06:24;8.10;;;5.68;;
51465;SDS011;37542;50.164;9.086;2022-10-31T19:10:06;12.88;;;8.00;;
51465;SDS011;37542;50.164;9.086;2022-10-31T19:14:07;9.70;;;7.32;;
51465;SDS011;37542;50.164;9.086;2022-10-31T19:17:50;14.05;;;8.25;;
51465;SDS011;37542;50.164;9.086;2022-10-31T19:21:30;13.80;;;7.43;;
51465;SDS011;37542;50.164;9.086;2022-10-31T19:25:11;10.27;;;6.43;;
51465;SDS011;37542;50.164;9.086;2022-10-31T19:28:53;11.70;;;6.00;;
51465;SDS011;37542;50.164;9.086;2022-10-31T19:32:35;9.80;;;5.40;;
51465;SDS011;37542;50.164;9.086;2022-10-31T19:36:20;7.97;;;4.10;;
51465;SDS011;37542;50.164;9.086;2022-10-31T19:40:03;10.85;;;4.38;;
51465;SDS011;37542;50.164;9.086;2022-10-31T19:43:47;7.97;;;4.20;;
51465;SDS011;37542;50.164;9.086;2022-10-31T19:47:28;8.68;;;4.57;;
51465;SDS011;37542;50.164;9.086;2022-10-31T19:51:17;7.40;;;4.50;;
51465;SDS011;37542;50.164;9.086;2022-10-31T19:55:00;8.07;;;5.18;;
51465;SDS011;37542;50.164;9.086;2022-10-31T19:58:41;9.90;;;4.20;;
51465;SDS011;37542;50.164;9.086;2022-10-31T20:02:23;9.82;;;5.57;;
51465;SDS011;37542;50.164;9.086;2022-10-31T20:06:04;7.18;;;5.25;;
51465;SDS011;37542;50.164;9.086;2022-10-31T20:09:46;7.22;;;5.65;;
51465;SDS011;37542;50.164;9.086;2022-10-31T20:13:27;11.07;;;6.35;;
51465;SDS011;37542;50.164;9.086;2022-10-31T20:17:10;7.47;;;5.93;;
51465;SDS011;37542;50.164;9.086;2022-10-31T20:20:51;8.55;;;6.22;;
51465;SDS011;37542;50.164;9.086;2022-10-31T20:24:32;8.68;;;5.78;;
51465;SDS011;37542;50.164;9.086;2022-10-31T20:28:13;11.35;;;6.43;;
51465;SDS011;37542;50.164;9.086;2022-10-31T20:31:53;13.27;;;6.78;;
51465;SDS011;37542;50.164;9.086;2022-10-31T20:35:36;16.42;;;8.05;;
51465;SDS011;37542;50.164;9.086;2022-10-31T20:39:18;8.82;;;6.03;;
51465;SDS011;37542;50.164;9.086;2022-10-31T20:42:59;9.35;;;6.43;;
51465;SDS011;37542;50.164;9.086;2022-10-31T20:46:43;9.02;;;6.32;;
51465;SDS011;37542;50.164;9.086;2022-10-31T20:50:24;10.25;;;6.90;;
51465;SDS011;37542;50.164;9.086;2022-10-31T20:54:05;9.65;;;6.43;;
51465;SDS011;37542;50.164;9.086;2022-10-31T20:57:46;10.18;;;6.47;;
51465;SDS011;37542;50.164;9.086;2022-10-31T21:01:28;9.68;;;6.57;;
51465;SDS011;37542;50.164;9.086;2022-10-31T21:05:12;11.07;;;6.60;;
51465;SDS011;37542;50.164;9.086;2022-10-31T21:08:53;9.18;;;5.78;;
51465;SDS011;37542;50.164;9.086;2022-10-31T21:12:35;9.88;;;6.47;;
51465;SDS011;37542;50.164;9.086;2022-10-31T21:16:20;8.35;;;6.10;;
51465;SDS011;37542;50.164;9.086;2022-10-31T21:20:11;12.65;;;6.60;;
51465;SDS011;37542;50.164;9.086;2022-10-31T21:23:59;11.73;;;6.82;;
51465;SDS011;37542;50.164;9.086;2022-10-31T21:27:52;11.52;;;7.13;;
51465;SDS011;37542;50.164;9.086;2022-10-31T21:31:34;9.55;;;6.70;;
51465;SDS011;37542;50.164;9.086;2022-10-31T21:35:17;11.35;;;7.93;;
51465;SDS011;37542;50.164;9.086;2022-10-31T21:38:58;9.25;;;6.13;;
51465;SDS011;37542;50.164;9.086;2022-10-31T21:42:39;10.55;;;7.18;;
51465;SDS011;37542;50.164;9.086;2022-10-31T21:46:24;11.43;;;7.68;;
51465;SDS011;37542;50.164;9.086;2022-10-31T21:50:10;13.75;;;7.75;;
51465;SDS011;37542;50.164;9.086;2022-10-31T21:53:54;10.25;;;7.68;;
51465;SDS011;37542;50.164;9.086;2022-10-31T21:57:55;11.70;;;7.47;;
51465;SDS011;37542;50.164;9.086;2022-10-31T22:01:40;9.77;;;6.90;;
51465;SDS011;37542;50.164;9.086;2022-10-31T22:05:21;9.98;;;7.30;;
51465;SDS011;37542;50.164;9.086;2022-10-31T22:09:05;11.15;;;7.85;;
51465;SDS011;37542;50.164;9.086;2022-10-31T22:12:56;10.60;;;7.25;;
51465;SDS011;37542;50.164;9.086;2022-10-31T22:16:41;12.57;;;8.00;;
51465;SDS011;37542;50.164;9.086;2022-10-31T22:20:22;12.10;;;7.60;;
51465;SDS011;37542;50.164;9.086;2022-10-31T22:24:05;11.32;;;7.25;;
51465;SDS011;37542;50.164;9.086;2022-10-31T22:27:47;11.93;;;7.55;;
51465;SDS011;37542;50.164;9.086;2022-10-31T22:31:38;11.70;;;6.18;;
51465;SDS011;37542;50.164;9.086;2022-10-31T22:35:21;12.60;;;7.15;;
51465;SDS011;37542;50.164;9.086;2022-10-31T22:39:02;11.20;;;6.65;;
51465;SDS011;37542;50.164;9.086;2022-10-31T22:42:44;12.00;;;7.43;;
51465;SDS011;37542;50.164;9.086;2022-10-31T22:46:26;9.45;;;6.80;;
51465;SDS011;37542;50.164;9.086;2022-10-31T22:50:10;10.63;;;6.85;;
51465;SDS011;37542;50.164;9.086;2022-10-31T22:53:51;13.35;;;6.13;;
51465;SDS011;37542;50.164;9.086;2022-10-31T22:57:35;9.15;;;6.70;;
51465;SDS011;37542;50.164;9.086;2022-10-31T23:01:17;9.85;;;6.07;;
51465;SDS011;37542;50.164;9.086;2022-10-31T23:05:05;9.70;;;6.78;;
51465;SDS011;37542;50.164;9.086;2022-10-31T23:08:47;9.48;;;6.38;;
51465;SDS011;37542;50.164;9.086;2022-10-31T23:12:29;7.75;;;4.97;;
51465;SDS011;37542;50.164;9.086;2022-10-31T23:16:28;8.60;;;5.80;;
51465;SDS011;37542;50.164;9.086;2022-10-31T23:20:09;7.97;;;5.45;;
51465;SDS011;37542;50.164;9.086;2022-10-31T23:23:50;8.63;;;5.60;;
51465;SDS011;37542;50.164;9.086;2022-10-31T23:27:31;9.70;;;6.30;;
51465;SDS011;37542;50.164;9.086;2022-10-31T23:31:11;10.13;;;5.80;;
51465;SDS011;37542;50.164;9.086;2022-10-31T23:34:56;8.93;;;6.47;;
51465;SDS011;37542;50.164;9.086;2022-10-31T23:38:45;8.43;;;5.53;;
51465;SDS011;37542;50.164;9.086;2022-10-31T23:42:29;9.98;;;5.68;;
51465;SDS011;37542;50.164;9.086;2022-10-31T23:46:10;12.27;;;6.80;;
51465;SDS011;37542;50.164;9.086;2022-10-31T23:49:51;7.75;;;6.40;;
51465;SDS011;37542;50.164;9.086;2022-10-31T23:53:32;6.75;;;5.38;;
51465;SDS011;37542;50.164;9.086;2022-10-31T23:57:13;10.15;;;6.28;;
